SCHW weather

Hualaihué Airport
Hualaihue, Los Lagos Region, Chile

Public forecast

Using degrees Celsius for public forecast. Weather courtesy of forecast.io.

METAR (pilot weather report)

Closest report is El Tepual Airport, 39.8 nm (73.7 km) NNW. Retrieved 2019/04/25 21:00 UTC (20 minutes ago):

SCTE 252100Z 12003KT 9999 FEW008 BKN012 OVC080 12/10 Q1019 NOSIG

TAF (pilot weather forecast)

Closest forecast is El Tepual Airport, 39.8 nm (73.7 km) NNW. Retrieved 2019/04/25 18:54 UTC (2 hours ago):

TAF COR SCTE 251746Z 2518/2618 16004KT 9999 FEW016 OVC080 TX14/2519Z TN08/2612Z BECMG 2520/2522 10004KT SCT018 BKN070 BECMG 2601/2603 VRB02KT SCT012 BKN050 BECMG 2604/2606 SCT010 BKN025 PROB40 TEMPO 2605/2612 00000KT 0700 FG OVC001 BECMG 2615/2617 BKN030 BKN140